Time;durP1;ratioP1;P1;durP2;ratioP2;P2;SDS_P1;SDS_P2;PMS_P1;PMS_P2;Temp;Humidity;BMP_temperature;BMP_pressure;BME280_temperature;BME280_humidity;BME280_pressure;Samples;Min_cycle;Max_cycle;Signal;HPM_P1;HPM_P2
2023/01/12 00:01:30;;;;;;;1.65;1.02;;;11.60;80.10;;;;;;5059660;28;20534;-87
2023/01/12 00:03:57;;;;;;;1.38;1.20;;;11.50;80.20;;;;;;5058659;28;20040;-86
2023/01/12 00:06:23;;;;;;;1.48;1.20;;;11.60;80.20;;;;;;5070141;28;20093;-87
2023/01/12 00:08:51;;;;;;;1.00;1.00;;;11.60;80.20;;;;;;5057032;28;20041;-87
2023/01/12 00:11:17;;;;;;;1.85;1.13;;;11.60;80.20;;;;;;5067308;28;20045;-86
2023/01/12 00:13:44;;;;;;;2.30;1.38;;;11.60;80.20;;;;;;5052859;28;20025;-87
2023/01/12 00:16:34;;;;;;;2.50;1.23;;;11.60;80.20;;;;;;5068704;28;20557;-87
2023/01/12 00:19:12;;;;;;;2.08;1.15;;;11.60;80.20;;;;;;5067196;28;20040;-87
2023/01/12 00:24:33;;;;;;;1.50;1.40;;;11.50;80.10;;;;;;5070055;28;20107;-87
2023/01/12 00:27:00;;;;;;;1.20;1.10;;;11.50;80.10;;;;;;5052788;28;20029;-88
2023/01/12 00:29:27;;;;;;;1.95;1.23;;;11.50;80.20;;;;;;5050759;28;20485;-88
2023/01/12 00:31:54;;;;;;;1.33;1.23;;;11.50;80.20;;;;;;5051582;28;21528;-89
2023/01/12 00:34:20;;;;;;;1.30;1.15;;;11.50;80.20;;;;;;5050206;28;20063;-89
2023/01/12 00:36:46;;;;;;;2.00;1.40;;;11.50;80.20;;;;;;5034281;28;20482;-86
2023/01/12 00:39:13;;;;;;;1.30;1.20;;;11.50;80.20;;;;;;5046982;28;20470;-88
2023/01/12 00:47:10;;;;;;;1.70;1.30;;;11.50;80.20;;;;;;5048336;28;20033;-88
2023/01/12 00:49:37;;;;;;;2.47;1.40;;;11.50;80.20;;;;;;5054418;28;20051;-85
2023/01/12 00:52:04;;;;;;;1.60;1.30;;;11.50;80.20;;;;;;5051392;28;20047;-86
2023/01/12 00:54:31;;;;;;;2.03;1.15;;;11.50;80.20;;;;;;5019983;28;20029;-85
2023/01/12 00:56:57;;;;;;;1.38;1.20;;;11.50;80.20;;;;;;5051865;28;20025;-86
2023/01/12 00:59:22;;;;;;;2.53;1.50;;;11.50;80.20;;;;;;5061169;28;20374;-87
2023/01/12 01:01:48;;;;;;;1.88;1.40;;;11.50;80.20;;;;;;5030565;28;20055;-88
2023/01/12 01:04:14;;;;;;;2.53;1.40;;;11.50;80.30;;;;;;5019159;28;20037;-87
2023/01/12 01:06:40;;;;;;;1.60;1.27;;;11.50;80.20;;;;;;5053292;28;20037;-87
2023/01/12 01:09:06;;;;;;;2.15;1.50;;;11.50;80.20;;;;;;5035606;28;20044;-87
2023/01/12 01:11:33;;;;;;;1.98;1.45;;;11.50;80.30;;;;;;5048854;28;20072;-88
2023/01/12 01:13:59;;;;;;;2.03;1.40;;;11.50;80.30;;;;;;5066816;28;20037;-87
2023/01/12 01:16:25;;;;;;;2.58;1.45;;;11.50;80.30;;;;;;5069911;28;20032;-86
2023/01/12 01:18:51;;;;;;;2.05;1.38;;;11.50;80.20;;;;;;5069502;28;20045;-86
2023/01/12 01:21:17;;;;;;;1.98;1.45;;;11.50;80.30;;;;;;5069127;28;20040;-87
2023/01/12 01:23:43;;;;;;;1.95;1.77;;;11.50;80.30;;;;;;5056985;28;20025;-87
2023/01/12 01:26:15;;;;;;;4.38;1.65;;;11.50;80.20;;;;;;5069050;28;20033;-88
2023/01/12 01:28:41;;;;;;;2.72;1.88;;;11.50;80.30;;;;;;5069210;28;20142;-87
2023/01/12 01:31:10;;;;;;;2.13;1.48;;;11.50;80.20;;;;;;5061759;28;20031;-86
2023/01/12 01:33:36;;;;;;;3.17;1.70;;;11.50;80.30;;;;;;5052604;28;20027;-88
2023/01/12 01:36:02;;;;;;;2.75;1.55;;;11.50;80.30;;;;;;5068267;28;20021;-88
2023/01/12 01:38:29;;;;;;;1.55;1.42;;;11.50;80.30;;;;;;5071207;28;20021;-87
2023/01/12 01:40:54;;;;;;;3.25;1.70;;;11.50;80.30;;;;;;5053956;28;20067;-87
2023/01/12 01:43:23;;;;;;;2.92;1.80;;;11.50;80.30;;;;;;5043521;28;20744;-87
2023/01/12 01:46:03;;;;;;;3.15;1.65;;;11.50;80.30;;;;;;5070532;28;20099;-88
2023/01/12 01:48:33;;;;;;;2.42;1.50;;;11.50;80.30;;;;;;5053647;28;20064;-85
2023/01/12 01:51:03;;;;;;;2.70;1.52;;;11.50;80.20;;;;;;5051659;28;20049;-88
2023/01/12 01:53:32;;;;;;;3.42;1.70;;;11.50;80.20;;;;;;5049652;28;20021;-87
2023/01/12 01:56:02;;;;;;;2.78;1.67;;;11.50;80.20;;;;;;5049542;28;20373;-89
2023/01/12 01:58:35;;;;;;;3.03;1.90;;;11.50;80.30;;;;;;5047392;28;20082;-87
2023/01/12 02:01:01;;;;;;;2.47;1.70;;;11.60;80.40;;;;;;5047901;28;20056;-88
2023/01/12 02:03:27;;;;;;;3.20;1.67;;;11.50;80.30;;;;;;5067254;28;20064;-87
2023/01/12 02:05:55;;;;;;;3.30;1.92;;;11.50;80.30;;;;;;5050421;28;20469;-88
2023/01/12 02:08:33;;;;;;;2.10;1.70;;;11.50;80.30;;;;;;5037725;28;20041;-87
2023/01/12 02:11:01;;;;;;;4.93;1.75;;;11.50;80.40;;;;;;5055679;28;20052;-90
2023/01/12 02:16:26;;;;;;;2.08;1.60;;;11.50;80.30;;;;;;5069041;28;20115;-88
2023/01/12 02:19:07;;;;;;;3.17;1.70;;;11.50;80.40;;;;;;5077131;28;20055;-88
2023/01/12 02:22:08;;;;;;;3.80;1.95;;;11.50;81.00;;;;;;5070939;28;20092;-89
2023/01/12 02:24:43;;;;;;;1.83;1.45;;;11.50;80.40;;;;;;5073219;28;20025;-89
2023/01/12 02:27:28;;;;;;;2.38;1.63;;;11.50;80.40;;;;;;5069387;28;20067;-89
2023/01/12 02:30:12;;;;;;;3.78;1.52;;;11.50;80.40;;;;;;5071357;28;20024;-89
2023/01/12 02:32:56;;;;;;;2.35;1.42;;;11.50;80.40;;;;;;5072466;28;20513;-88
2023/01/12 02:35:43;;;;;;;2.58;1.52;;;11.50;80.40;;;;;;5051208;28;20082;-88
2023/01/12 02:38:20;;;;;;;3.10;1.60;;;11.50;80.40;;;;;;5068758;28;20025;-88
2023/01/12 02:40:58;;;;;;;2.38;1.83;;;11.50;80.40;;;;;;5069792;28;20026;-88
2023/01/12 02:43:27;;;;;;;2.10;1.40;;;11.50;80.40;;;;;;5051257;28;20095;-88
2023/01/12 02:45:56;;;;;;;1.58;1.40;;;11.50;80.40;;;;;;5079847;28;20531;-87
2023/01/12 02:48:31;;;;;;;2.78;1.50;;;11.50;80.50;;;;;;5075985;28;20029;-89
2023/01/12 02:51:03;;;;;;;1.85;1.42;;;11.50;80.50;;;;;;5077119;28;20059;-88
2023/01/12 02:53:43;;;;;;;2.20;1.50;;;11.50;80.40;;;;;;5076174;28;20028;-88
2023/01/12 02:56:28;;;;;;;2.85;1.42;;;11.50;81.10;;;;;;5070655;28;20020;-90
2023/01/12 02:58:58;;;;;;;1.50;1.40;;;11.50;80.50;;;;;;5070653;28;20032;-90
2023/01/12 03:01:25;;;;;;;3.05;1.70;;;11.50;80.40;;;;;;5072892;28;20031;-89
2023/01/12 03:03:55;;;;;;;1.95;1.40;;;11.50;80.40;;;;;;5069553;28;20067;-89
2023/01/12 03:06:21;;;;;;;2.25;1.58;;;11.50;80.40;;;;;;5054765;28;20039;-89
2023/01/12 03:08:49;;;;;;;1.92;1.42;;;11.50;80.50;;;;;;5073458;28;20473;-89
2023/01/12 03:11:21;;;;;;;3.33;1.52;;;11.50;80.40;;;;;;5049992;28;20064;-88
2023/01/12 03:13:59;;;;;;;3.88;1.63;;;11.50;80.50;;;;;;5042216;28;20037;-88
2023/01/12 03:16:34;;;;;;;1.90;1.20;;;11.60;80.50;;;;;;5062694;28;20048;-89
2023/01/12 03:19:08;;;;;;;1.70;1.30;;;11.50;80.50;;;;;;5068731;28;20041;-89
2023/01/12 03:21:37;;;;;;;3.38;1.55;;;11.50;80.40;;;;;;5050404;28;20021;-88
2023/01/12 03:24:13;;;;;;;4.40;1.98;;;11.50;80.40;;;;;;5057313;28;20028;-88
2023/01/12 03:26:45;;;;;;;1.63;1.27;;;11.50;80.50;;;;;;5056056;28;20111;-88
2023/01/12 03:29:29;;;;;;;2.63;1.50;;;11.50;80.10;;;;;;5038471;28;20033;-88
2023/01/12 03:31:55;;;;;;;2.37;2.10;;;11.60;80.50;;;;;;5061707;28;20017;-87
2023/01/12 03:34:22;;;;;;;1.92;1.60;;;11.50;80.40;;;;;;5050679;28;20017;-87
2023/01/12 03:37:06;;;;;;;2.22;1.50;;;11.50;80.40;;;;;;5046760;28;20033;-89
2023/01/12 03:39:39;;;;;;;2.33;1.47;;;11.50;80.50;;;;;;5069412;28;20022;-89
2023/01/12 03:42:20;;;;;;;2.30;1.52;;;11.50;80.40;;;;;;5051568;28;20167;-88
2023/01/12 03:45:14;;;;;;;2.15;1.38;;;11.60;80.50;;;;;;5051088;28;20028;-88
2023/01/12 03:47:42;;;;;;;2.40;1.40;;;11.60;80.50;;;;;;5054494;28;20033;-88
2023/01/12 03:50:16;;;;;;;2.30;1.45;;;11.60;80.50;;;;;;5026600;28;20025;-89
2023/01/12 03:52:43;;;;;;;3.50;1.52;;;11.60;80.50;;;;;;5049220;28;20183;-88
2023/01/12 03:55:14;;;;;;;3.72;1.67;;;11.50;80.50;;;;;;5054502;28;20025;-88
2023/01/12 03:57:42;;;;;;;2.20;1.40;;;11.60;80.50;;;;;;5050018;28;20032;-88
2023/01/12 04:00:10;;;;;;;2.13;1.50;;;11.60;80.50;;;;;;5036763;28;20040;-89
2023/01/12 04:02:43;;;;;;;2.58;1.80;;;11.50;80.50;;;;;;5050222;28;20025;-88
2023/01/12 04:05:11;;;;;;;2.50;1.33;;;11.60;80.50;;;;;;5016474;28;20025;-89
2023/01/12 04:07:36;;;;;;;1.65;1.33;;;11.60;80.50;;;;;;5034849;28;20067;-89
2023/01/12 04:10:03;;;;;;;2.17;1.60;;;11.60;80.50;;;;;;5036452;28;20029;-89
2023/01/12 04:12:28;;;;;;;3.97;1.70;;;11.50;80.40;;;;;;5074132;28;20040;-89
2023/01/12 04:14:54;;;;;;;3.35;1.60;;;11.60;80.50;;;;;;5085204;28;20036;-88
2023/01/12 04:17:23;;;;;;;3.30;1.65;;;11.50;80.50;;;;;;5077081;28;20105;-89
2023/01/12 04:19:50;;;;;;;1.73;1.30;;;11.60;80.50;;;;;;5065080;28;20047;-88
2023/01/12 04:25:03;;;;;;;2.67;1.60;;;11.60;80.50;;;;;;5089850;28;20039;-89
2023/01/12 04:27:28;;;;;;;2.20;1.60;;;11.60;80.50;;;;;;5083409;28;20119;-88
2023/01/12 04:29:54;;;;;;;2.97;1.50;;;11.60;80.50;;;;;;5075920;28;20185;-88
2023/01/12 04:32:20;;;;;;;2.25;1.45;;;11.60;80.50;;;;;;5063614;28;20494;-89
2023/01/12 04:34:46;;;;;;;2.00;1.50;;;11.60;80.50;;;;;;5083134;28;20085;-89
2023/01/12 04:37:12;;;;;;;1.33;1.23;;;11.60;80.50;;;;;;5070838;28;20052;-88
2023/01/12 04:39:38;;;;;;;3.00;1.42;;;11.60;80.50;;;;;;5077853;28;20473;-88
2023/01/12 04:42:04;;;;;;;1.42;1.30;;;11.60;80.50;;;;;;5074570;28;20038;-89
2023/01/12 04:44:31;;;;;;;3.60;1.50;;;11.60;80.50;;;;;;5070322;28;20115;-89
2023/01/12 04:46:56;;;;;;;2.55;1.33;;;11.60;80.50;;;;;;5080611;28;20043;-87
2023/01/12 04:49:22;;;;;;;2.72;1.55;;;11.60;80.50;;;;;;5065849;28;20036;-89
2023/01/12 04:51:48;;;;;;;2.10;1.40;;;11.60;80.50;;;;;;5087681;28;20036;-89
2023/01/12 04:54:14;;;;;;;2.38;1.52;;;11.60;80.50;;;;;;5081954;28;20357;-89
2023/01/12 04:56:39;;;;;;;2.20;1.25;;;11.60;80.50;;;;;;5060098;28;20035;-88
2023/01/12 04:59:07;;;;;;;2.65;1.40;;;11.60;80.50;;;;;;5064051;28;20119;-88
2023/01/12 05:01:35;;;;;;;2.65;1.40;;;11.60;80.50;;;;;;5092801;28;20127;-88
2023/01/12 05:04:01;;;;;;;2.03;1.23;;;11.60;80.50;;;;;;5090544;28;20025;-88
2023/01/12 05:06:27;;;;;;;2.75;1.48;;;11.60;80.50;;;;;;5063258;28;20534;-88
2023/01/12 05:11:48;;;;;;;1.48;1.25;;;11.60;80.50;;;;;;5041039;28;20180;-89
2023/01/12 05:14:14;;;;;;;1.55;1.23;;;11.60;80.40;;;;;;5077568;28;20036;-88
2023/01/12 05:16:40;;;;;;;1.45;1.20;;;11.60;80.50;;;;;;5091773;28;20488;-90
2023/01/12 05:19:05;;;;;;;2.05;1.17;;;11.60;80.50;;;;;;5075626;28;20511;-89
2023/01/12 05:21:31;;;;;;;1.67;1.33;;;11.60;80.50;;;;;;5077222;28;20044;-89
2023/01/12 05:23:57;;;;;;;2.45;1.42;;;11.60;80.50;;;;;;5076572;28;20040;-89
2023/01/12 05:26:23;;;;;;;2.13;1.17;;;11.60;81.20;;;;;;5075390;28;20036;-92
2023/01/12 05:28:50;;;;;;;1.42;1.23;;;11.60;80.50;;;;;;5084307;28;20084;-87
2023/01/12 05:31:16;;;;;;;1.85;1.30;;;11.60;80.60;;;;;;5084525;28;20419;-83
2023/01/12 05:33:42;;;;;;;1.88;1.40;;;11.60;80.60;;;;;;5091283;28;20122;-92
2023/01/12 05:36:12;;;;;;;1.67;1.23;;;11.60;80.60;;;;;;5074606;28;20028;-92
2023/01/12 05:38:38;;;;;;;2.30;1.40;;;11.60;80.60;;;;;;5075348;28;20049;-92
2023/01/12 05:41:09;;;;;;;1.88;1.38;;;11.60;80.60;;;;;;5076653;28;20391;-90
2023/01/12 05:43:50;;;;;;;2.78;1.30;;;11.60;80.60;;;;;;5074803;28;20024;-90
2023/01/12 05:46:28;;;;;;;1.55;1.20;;;11.60;80.60;;;;;;5077009;28;20056;-91
2023/01/12 05:48:55;;;;;;;1.75;1.25;;;11.60;80.60;;;;;;5078847;28;20039;-90
2023/01/12 05:51:24;;;;;;;3.08;1.33;;;11.60;80.60;;;;;;5054106;28;20528;-90
2023/01/12 05:53:50;;;;;;;2.28;1.30;;;11.60;80.60;;;;;;5059745;28;20028;-90
2023/01/12 05:56:25;;;;;;;1.67;1.40;;;11.60;81.20;;;;;;5093028;28;20107;-91
2023/01/12 05:58:57;;;;;;;3.17;1.40;;;11.60;80.60;;;;;;5062179;28;20041;-86
2023/01/12 06:01:23;;;;;;;2.22;1.40;;;11.60;80.60;;;;;;5083952;28;20024;-91
2023/01/12 06:03:53;;;;;;;1.38;1.10;;;11.60;80.60;;;;;;5073499;28;20043;-89
2023/01/12 06:06:21;;;;;;;1.38;1.02;;;11.60;80.60;;;;;;5060437;28;20034;-90
2023/01/12 06:08:47;;;;;;;2.38;1.50;;;11.60;80.60;;;;;;5055356;28;20028;-89
2023/01/12 06:13:59;;;;;;;2.13;1.20;;;11.60;80.70;;;;;;5060822;28;20040;-89
2023/01/12 06:16:26;;;;;;;1.70;1.10;;;11.60;80.60;;;;;;5059640;28;20115;-89
2023/01/12 06:18:52;;;;;;;1.42;1.00;;;11.60;80.60;;;;;;5056545;28;20121;-88
2023/01/12 06:21:18;;;;;;;1.30;1.13;;;11.60;80.60;;;;;;5045257;28;20551;-87
2023/01/12 06:23:44;;;;;;;1.20;1.10;;;11.60;80.60;;;;;;5079102;28;20055;-89
2023/01/12 06:26:10;;;;;;;2.13;1.08;;;11.60;80.70;;;;;;5061330;28;20119;-90
2023/01/12 06:28:37;;;;;;;2.85;1.48;;;11.60;80.60;;;;;;5083000;28;20035;-91
2023/01/12 06:31:05;;;;;;;2.72;1.48;;;11.60;80.70;;;;;;5077384;28;20036;-90
2023/01/12 06:33:32;;;;;;;2.90;1.30;;;11.60;80.70;;;;;;5069586;28;20114;-92
2023/01/12 06:35:58;;;;;;;1.50;1.10;;;11.70;80.70;;;;;;5095881;28;20020;-91
2023/01/12 06:38:26;;;;;;;2.00;1.38;;;11.60;80.70;;;;;;5060616;28;20174;-90
2023/01/12 06:40:56;;;;;;;0.88;0.85;;;11.70;80.70;;;;;;5084430;28;20029;-90
2023/01/12 06:43:22;;;;;;;2.10;1.17;;;11.70;80.70;;;;;;5069596;28;20126;-90
2023/01/12 06:45:51;;;;;;;2.60;1.20;;;11.70;80.70;;;;;;5063602;28;20022;-90
2023/01/12 06:48:21;;;;;;;1.17;1.00;;;11.60;80.70;;;;;;5096736;28;20035;-91
2023/01/12 06:50:47;;;;;;;1.67;1.10;;;11.60;80.60;;;;;;5070067;28;20028;-90
2023/01/12 06:53:13;;;;;;;1.50;1.10;;;11.70;80.70;;;;;;5082634;28;20024;-89
2023/01/12 06:55:38;;;;;;;2.30;1.30;;;11.60;80.60;;;;;;5062980;28;20078;-90
2023/01/12 06:58:04;;;;;;;2.03;1.20;;;11.70;80.70;;;;;;5095806;28;20036;-90
2023/01/12 07:00:31;;;;;;;1.88;1.10;;;11.70;80.70;;;;;;5082675;28;20095;-90
2023/01/12 07:02:59;;;;;;;1.88;1.27;;;11.70;80.70;;;;;;5079022;28;20055;-89
2023/01/12 07:05:25;;;;;;;1.85;1.10;;;11.70;80.70;;;;;;5060397;28;20082;-91
2023/01/12 07:07:58;;;;;;;2.10;1.20;;;11.70;80.70;;;;;;5066510;28;20389;-90
2023/01/12 07:10:24;;;;;;;1.10;1.00;;;11.70;80.70;;;;;;5108368;28;20039;-90
2023/01/12 07:12:49;;;;;;;1.13;1.02;;;11.70;80.60;;;;;;5065993;28;20049;-89
2023/01/12 07:15:15;;;;;;;1.10;1.00;;;11.70;80.70;;;;;;5066223;28;20032;-89
2023/01/12 07:17:42;;;;;;;2.08;1.35;;;11.70;80.70;;;;;;5063218;28;20133;-89
2023/01/12 07:20:08;;;;;;;1.08;1.00;;;11.70;80.70;;;;;;5065135;28;20040;-89
2023/01/12 07:22:34;;;;;;;1.58;1.10;;;11.70;80.70;;;;;;5061270;28;20451;-89
2023/01/12 07:25:00;;;;;;;1.75;1.13;;;11.70;80.70;;;;;;5078483;28;20062;-89
2023/01/12 07:27:25;;;;;;;2.05;1.10;;;11.70;80.70;;;;;;5082201;28;20054;-90
2023/01/12 07:29:51;;;;;;;1.20;1.10;;;11.70;80.70;;;;;;5078585;28;20053;-90
2023/01/12 07:32:17;;;;;;;1.10;1.00;;;11.70;80.70;;;;;;5064482;28;20448;-90
2023/01/12 07:34:44;;;;;;;1.35;1.10;;;11.70;80.70;;;;;;5092014;28;20053;-89
2023/01/12 07:37:10;;;;;;;1.02;1.02;;;11.80;80.70;;;;;;5082479;28;20028;-89
2023/01/12 07:39:38;;;;;;;1.23;1.10;;;11.80;80.70;;;;;;5064246;28;20020;-92
2023/01/12 07:42:22;;;;;;;1.20;1.10;;;11.80;80.70;;;;;;5067030;28;20025;-90
2023/01/12 07:44:48;;;;;;;1.35;1.20;;;11.80;80.70;;;;;;5092657;28;20121;-90
2023/01/12 07:47:14;;;;;;;1.67;1.25;;;11.70;80.60;;;;;;5079514;28;20024;-91
2023/01/12 07:49:39;;;;;;;1.58;1.15;;;11.80;80.70;;;;;;5086269;28;20016;-90
2023/01/12 07:52:06;;;;;;;1.63;1.20;;;11.70;80.70;;;;;;5043007;28;20029;-90
2023/01/12 07:54:34;;;;;;;1.20;1.10;;;11.80;80.70;;;;;;5064924;28;20028;-91
2023/01/12 07:57:00;;;;;;;1.50;1.20;;;11.80;80.80;;;;;;5079235;28;20027;-90
2023/01/12 07:59:26;;;;;;;1.10;1.10;;;11.80;80.70;;;;;;5076749;28;20484;-91
2023/01/12 08:01:53;;;;;;;1.35;1.25;;;11.80;80.70;;;;;;5060821;28;20090;-90
2023/01/12 08:04:20;;;;;;;1.15;1.10;;;11.80;80.70;;;;;;5075390;28;20066;-90
2023/01/12 08:06:47;;;;;;;1.67;1.30;;;11.80;80.70;;;;;;5099961;28;20032;-90
2023/01/12 08:09:13;;;;;;;1.42;1.10;;;11.80;80.70;;;;;;5078099;28;20035;-91
2023/01/12 08:11:39;;;;;;;1.63;1.15;;;11.80;80.70;;;;;;5068714;28;20044;-91
2023/01/12 08:14:05;;;;;;;1.00;1.00;;;11.80;80.70;;;;;;5064911;28;20143;-89
2023/01/12 08:16:39;;;;;;;1.17;1.13;;;11.80;80.70;;;;;;5086021;28;21192;-91
2023/01/12 08:19:22;;;;;;;1.10;1.10;;;11.80;80.80;;;;;;5064191;28;20028;-90
2023/01/12 08:21:55;;;;;;;1.20;1.15;;;11.80;80.70;;;;;;5068505;28;20020;-91
2023/01/12 08:24:24;;;;;;;1.70;1.20;;;11.80;80.70;;;;;;5063879;28;20032;-91
2023/01/12 08:26:52;;;;;;;1.17;1.10;;;11.80;80.70;;;;;;5095231;28;20111;-90
2023/01/12 08:29:30;;;;;;;1.55;1.30;;;11.80;80.70;;;;;;5075343;28;20020;-90
2023/01/12 08:32:03;;;;;;;2.10;1.40;;;11.90;80.80;;;;;;5077909;28;20040;-92
2023/01/12 08:34:30;;;;;;;1.30;1.20;;;11.90;80.80;;;;;;5080639;28;20068;-91
2023/01/12 08:37:01;;;;;;;1.23;1.13;;;11.90;80.80;;;;;;5082824;28;20158;-91
2023/01/12 08:39:28;;;;;;;1.25;1.20;;;11.90;80.80;;;;;;5092860;28;20035;-91
2023/01/12 08:41:54;;;;;;;1.15;1.15;;;11.90;80.80;;;;;;5076805;28;20099;-92
2023/01/12 08:44:20;;;;;;;1.30;1.20;;;11.90;80.80;;;;;;5091408;28;20043;-90
2023/01/12 08:46:51;;;;;;;1.30;1.20;;;11.90;80.80;;;;;;5093840;28;20163;-91
2023/01/12 08:49:20;;;;;;;1.30;1.20;;;11.90;80.80;;;;;;5086543;28;20067;-91
2023/01/12 08:51:46;;;;;;;1.30;1.17;;;11.90;80.80;;;;;;5059703;28;20024;-91
2023/01/12 08:54:13;;;;;;;1.40;1.30;;;11.90;80.80;;;;;;5085428;28;20050;-91
2023/01/12 08:56:39;;;;;;;1.10;1.10;;;11.90;80.80;;;;;;5080527;28;20024;-91
2023/01/12 08:59:05;;;;;;;1.30;1.20;;;11.90;80.80;;;;;;5061141;28;20115;-91
2023/01/12 09:01:31;;;;;;;1.13;1.13;;;12.00;80.80;;;;;;5058873;28;20024;-90
2023/01/12 09:03:58;;;;;;;1.30;1.20;;;11.90;80.80;;;;;;5057335;28;20032;-91
2023/01/12 09:06:30;;;;;;;1.30;1.20;;;11.90;80.80;;;;;;5096875;28;20016;-90
2023/01/12 09:08:58;;;;;;;1.38;1.27;;;12.00;80.90;;;;;;5097721;28;20032;-90
2023/01/12 09:11:25;;;;;;;1.50;1.40;;;12.00;80.80;;;;;;5058305;28;20080;-91
2023/01/12 09:13:51;;;;;;;1.30;1.20;;;12.00;80.80;;;;;;5075138;28;20023;-92
2023/01/12 09:16:18;;;;;;;1.55;1.30;;;12.00;80.80;;;;;;5062393;28;20386;-88
2023/01/12 09:18:45;;;;;;;1.10;1.10;;;12.00;80.80;;;;;;5078542;28;20414;-86
2023/01/12 09:21:19;;;;;;;1.40;1.30;;;12.00;80.80;;;;;;5082081;28;20089;-88
2023/01/12 09:23:45;;;;;;;1.17;1.17;;;12.00;80.80;;;;;;5071737;28;20043;-90
2023/01/12 09:26:17;;;;;;;1.15;1.10;;;12.00;80.80;;;;;;5074795;28;20464;-91
2023/01/12 09:28:44;;;;;;;1.30;1.20;;;12.00;80.80;;;;;;5077480;28;20076;-90
2023/01/12 09:31:19;;;;;;;1.10;1.10;;;12.10;80.90;;;;;;5058803;28;20116;-90
2023/01/12 09:33:48;;;;;;;1.35;1.25;;;12.10;80.90;;;;;;5060209;28;20023;-89
2023/01/12 09:36:19;;;;;;;1.30;1.20;;;12.10;80.80;;;;;;5075504;28;20065;-89
2023/01/12 09:38:48;;;;;;;1.30;1.20;;;12.10;80.80;;;;;;5099428;28;20039;-90
2023/01/12 09:47:38;;;;;;;1.30;1.20;;;12.10;80.80;;;;;;5075036;28;20490;-89
2023/01/12 09:50:16;;;;;;;;;;;12.10;80.80;;;;;;5079392;28;20055;-89
2023/01/12 09:52:44;;;;;;;1.20;1.10;;;12.10;80.70;;;;;;5067259;28;19908;-90
2023/01/12 09:55:19;;;;;;;1.40;1.20;;;12.10;80.60;;;;;;5096069;28;20102;-90
2023/01/12 09:58:02;;;;;;;1.40;1.30;;;12.10;80.80;;;;;;5076228;28;20039;-90
2023/01/12 10:00:28;;;;;;;1.23;1.13;;;12.10;80.90;;;;;;5076550;28;20509;-90
2023/01/12 10:03:08;;;;;;;1.30;1.20;;;12.10;80.80;;;;;;5066937;28;20040;-89
2023/01/12 10:05:49;;;;;;;1.35;1.25;;;12.10;80.90;;;;;;5090672;28;20020;-89
2023/01/12 10:08:32;;;;;;;1.17;1.10;;;12.10;80.80;;;;;;5079319;28;20503;-91
2023/01/12 10:11:27;;;;;;;1.10;1.10;;;12.10;80.80;;;;;;5077356;28;20051;-90
2023/01/12 10:13:59;;;;;;;1.40;1.30;;;12.20;80.90;;;;;;5062972;28;20124;-90
2023/01/12 10:16:44;;;;;;;1.40;1.30;;;12.20;80.80;;;;;;5085773;28;20024;-90
2023/01/12 10:19:29;;;;;;;1.40;1.30;;;12.20;80.90;;;;;;5075326;28;20512;-90
2023/01/12 10:21:56;;;;;;;1.30;1.25;;;12.20;80.90;;;;;;5091258;28;20032;-90
2023/01/12 10:24:24;;;;;;;1.10;1.10;;;12.20;80.80;;;;;;5079248;28;20028;-88
2023/01/12 10:26:59;;;;;;;1.30;1.20;;;12.20;80.90;;;;;;5069529;28;20020;-89
2023/01/12 10:29:25;;;;;;;3.53;1.58;;;12.20;80.90;;;;;;5076026;28;20066;-90
2023/01/12 10:31:51;;;;;;;1.30;1.20;;;12.20;80.90;;;;;;5081501;28;20036;-89
2023/01/12 10:34:17;;;;;;;1.27;1.20;;;12.20;80.90;;;;;;5081695;28;20047;-88
2023/01/12 10:36:48;;;;;;;1.30;1.20;;;12.30;80.90;;;;;;5097298;28;20024;-89
2023/01/12 10:39:34;;;;;;;1.30;1.20;;;12.30;80.90;;;;;;5063033;28;20055;-85
2023/01/12 10:45:22;;;;;;;1.38;1.27;;;12.30;80.90;;;;;;5078275;28;20122;-89
2023/01/12 10:47:51;;;;;;;1.30;1.20;;;12.30;80.90;;;;;;5080525;28;20869;-90
2023/01/12 10:50:36;;;;;;;1.10;1.10;;;12.30;80.90;;;;;;5058277;28;20036;-89
2023/01/12 10:53:06;;;;;;;1.20;1.13;;;12.30;81.00;;;;;;5090759;28;20028;-90
2023/01/12 10:55:36;;;;;;;1.13;1.13;;;12.30;80.90;;;;;;5093603;28;20051;-90
2023/01/12 10:58:15;;;;;;;1.17;1.17;;;12.30;80.90;;;;;;5078637;28;20024;-89
2023/01/12 11:00:48;;;;;;;1.33;1.13;;;12.30;81.50;;;;;;5058493;28;20429;-89
2023/01/12 11:03:33;;;;;;;1.10;1.10;;;12.40;81.00;;;;;;5075573;28;20437;-89
2023/01/12 11:06:17;;;;;;;1.20;1.15;;;12.40;81.00;;;;;;5063738;28;20024;-90
2023/01/12 11:08:43;;;;;;;1.10;1.10;;;12.40;81.00;;;;;;5083008;28;20067;-89
2023/01/12 11:11:38;;;;;;;1.00;1.00;;;12.40;80.90;;;;;;5074645;28;20075;-90
2023/01/12 11:14:04;;;;;;;1.20;1.20;;;12.40;81.00;;;;;;5061422;28;20448;-90
2023/01/12 11:16:38;;;;;;;1.42;1.10;;;12.40;80.90;;;;;;5061555;28;20123;-89
2023/01/12 11:19:17;;;;;;;1.10;1.10;;;12.50;81.00;;;;;;5090848;28;20059;-90
2023/01/12 11:21:53;;;;;;;1.23;1.13;;;12.40;81.00;;;;;;5080874;28;20052;-91
2023/01/12 11:24:34;;;;;;;1.05;1.05;;;12.50;81.00;;;;;;5079834;28;20108;-91
2023/01/12 11:27:09;;;;;;;1.00;1.00;;;12.50;81.00;;;;;;5086904;28;20381;-91
2023/01/12 11:29:39;;;;;;;;;;;12.50;81.00;;;;;;5081679;28;20046;-91
2023/01/12 11:32:26;;;;;;;0.98;0.98;;;12.50;80.80;;;;;;5061454;28;19907;-91
2023/01/12 11:35:08;;;;;;;1.10;1.00;;;12.50;80.90;;;;;;5077192;28;20144;-90
2023/01/12 11:37:39;;;;;;;1.20;0.95;;;12.50;80.90;;;;;;5077601;28;20024;-89
2023/01/12 11:40:24;;;;;;;1.13;1.13;;;12.50;80.90;;;;;;5079002;28;20019;-91
2023/01/12 11:46:39;;;;;;;1.15;1.15;;;12.50;81.00;;;;;;5078040;28;20032;-89
2023/01/12 11:49:10;;;;;;;1.15;1.10;;;12.60;80.90;;;;;;5108827;28;20051;-90
2023/01/12 11:51:37;;;;;;;1.20;1.10;;;12.60;80.90;;;;;;5105553;28;20038;-91
2023/01/12 11:54:06;;;;;;;1.30;1.20;;;12.60;80.90;;;;;;5063205;28;20048;-90
2023/01/12 11:56:53;;;;;;;1.00;1.00;;;12.60;81.00;;;;;;5081039;28;20032;-91
2023/01/12 11:59:29;;;;;;;1.00;1.00;;;12.60;81.00;;;;;;5080868;28;20115;-87
2023/01/12 12:02:23;;;;;;;1.10;1.10;;;12.60;81.00;;;;;;5077507;28;20028;-88
2023/01/12 12:04:48;;;;;;;1.10;1.10;;;12.60;81.00;;;;;;5081479;28;20032;-87
2023/01/12 12:07:39;;;;;;;1.20;1.10;;;12.70;80.90;;;;;;5065300;28;20077;-87
2023/01/12 12:10:27;;;;;;;1.08;1.08;;;12.70;81.00;;;;;;5076012;28;20554;-87
2023/01/12 12:13:17;;;;;;;1.00;1.00;;;12.70;81.00;;;;;;5071306;28;20043;-87
2023/01/12 12:16:01;;;;;;;1.10;1.10;;;12.70;81.00;;;;;;5076131;28;20456;-87
2023/01/12 12:18:46;;;;;;;1.00;1.00;;;12.70;81.10;;;;;;5077816;28;20480;-87
2023/01/12 12:21:33;;;;;;;1.00;1.00;;;12.70;81.00;;;;;;5091316;28;20031;-87
2023/01/12 12:24:18;;;;;;;1.10;1.10;;;12.70;81.00;;;;;;5075359;28;20069;-87
2023/01/12 12:26:55;;;;;;;1.20;1.20;;;12.70;81.00;;;;;;5087471;28;20484;-86
2023/01/12 12:29:48;;;;;;;1.10;1.10;;;12.70;81.00;;;;;;5056091;28;20037;-87
2023/01/12 12:32:35;;;;;;;1.10;1.10;;;12.70;81.00;;;;;;5077723;28;20032;-86
2023/01/12 12:35:25;;;;;;;1.15;1.10;;;12.70;81.00;;;;;;5082967;28;20032;-87
2023/01/12 12:38:25;;;;;;;1.00;1.00;;;12.80;81.10;;;;;;5084305;28;20082;-87
2023/01/12 12:45:16;;;;;;;1.25;1.20;;;12.80;81.00;;;;;;5036596;28;20060;-86
2023/01/12 12:47:51;;;;;;;1.00;1.00;;;12.80;81.00;;;;;;5026339;28;20056;-87
2023/01/12 12:50:23;;;;;;;1.08;1.08;;;12.80;80.90;;;;;;5086804;28;20381;-87
2023/01/12 12:53:15;;;;;;;1.17;1.17;;;12.80;80.90;;;;;;5077139;28;20107;-86
2023/01/12 12:55:41;;;;;;;1.58;1.00;;;12.80;81.00;;;;;;5071886;28;20024;-87
2023/01/12 12:58:29;;;;;;;1.38;1.10;;;12.80;80.90;;;;;;5076551;28;20046;-86
2023/01/12 13:01:24;;;;;;;1.00;1.00;;;12.90;81.00;;;;;;5094042;28;20075;-86
2023/01/12 13:04:00;;;;;;;0.95;0.95;;;12.90;81.00;;;;;;5072350;28;20032;-86
2023/01/12 13:06:28;;;;;;;1.20;1.10;;;12.90;80.90;;;;;;5068800;28;20030;-87
2023/01/12 13:08:56;;;;;;;1.10;1.10;;;12.90;80.90;;;;;;5078201;28;20185;-87
2023/01/12 13:12:07;;;;;;;1.00;1.00;;;12.90;80.90;;;;;;5084266;28;20036;-86
2023/01/12 13:14:40;;;;;;;1.10;1.10;;;12.90;80.90;;;;;;5072414;28;20107;-87
2023/01/12 13:17:18;;;;;;;1.00;1.00;;;12.90;80.90;;;;;;5068723;28;20704;-87
2023/01/12 13:19:47;;;;;;;1.40;1.30;;;13.00;81.00;;;;;;5072164;28;20028;-86
2023/01/12 13:22:31;;;;;;;1.10;1.10;;;13.00;80.90;;;;;;5083425;28;20020;-85
2023/01/12 13:25:21;;;;;;;0.95;0.95;;;12.90;80.90;;;;;;5067236;28;20036;-86
2023/01/12 13:27:54;;;;;;;1.00;1.00;;;13.00;80.90;;;;;;5093547;28;20039;-86
2023/01/12 13:30:29;;;;;;;1.10;1.10;;;13.00;80.80;;;;;;5076239;28;20113;-85
2023/01/12 13:33:13;;;;;;;1.30;1.20;;;13.00;80.90;;;;;;5073450;28;20053;-85
2023/01/12 13:35:39;;;;;;;1.00;1.00;;;13.00;80.80;;;;;;5103252;28;20047;-86
2023/01/12 13:38:35;;;;;;;1.00;1.00;;;13.00;80.80;;;;;;5073427;28;20039;-85
2023/01/12 13:43:13;;;;;;;1.00;1.00;;;13.00;80.90;;;;;;5080235;28;20027;-86
2023/01/12 13:44:02;;;;;;;1.17;1.00;;;13.00;80.90;;;;;;5078655;28;20091;-85
2023/01/12 13:46:48;;;;;;;1.08;1.08;;;13.00;80.80;;;;;;5065845;28;20027;-85
2023/01/12 13:49:46;;;;;;;1.00;1.00;;;13.00;80.80;;;;;;5067172;28;20028;-86